createdAt,value
2022-11-17T00:02:20.176Z,6.40
2022-11-17T00:05:28.169Z,7.00
2022-11-17T00:08:33.200Z,6.90
2022-11-17T00:11:53.527Z,7.28
2022-11-17T00:14:58.417Z,7.45
2022-11-17T00:18:16.152Z,7.82
2022-11-17T00:21:27.186Z,7.68
2022-11-17T00:24:32.482Z,6.15
2022-11-17T00:27:37.427Z,6.18
2022-11-17T00:30:55.107Z,6.25
2022-11-17T00:34:09.004Z,5.07
2022-11-17T00:37:17.559Z,10.35
2022-11-17T00:40:22.918Z,6.28
2022-11-17T00:43:29.777Z,8.60
2022-11-17T00:46:35.296Z,5.18
2022-11-17T00:49:40.849Z,5.20
2022-11-17T00:52:49.755Z,4.93
2022-11-17T00:55:57.576Z,4.72
2022-11-17T00:59:02.764Z,6.40
2022-11-17T01:02:08.047Z,7.90
2022-11-17T01:05:13.251Z,5.50
2022-11-17T01:08:24.320Z,6.72
2022-11-17T01:11:29.178Z,4.43
2022-11-17T01:14:36.098Z,4.10
2022-11-17T01:17:40.926Z,3.97
2022-11-17T01:20:50.320Z,4.57
2022-11-17T01:24:00.918Z,7.38
2022-11-17T01:27:06.277Z,5.20
2022-11-17T01:30:13.750Z,4.35
2022-11-17T01:33:21.854Z,5.13
2022-11-17T01:36:27.930Z,3.30
2022-11-17T01:39:36.132Z,3.88
2022-11-17T01:42:41.594Z,3.72
2022-11-17T01:45:47.294Z,4.05
2022-11-17T01:48:53.012Z,3.35
2022-11-17T01:51:59.610Z,4.43
2022-11-17T01:55:09.744Z,4.00
2022-11-17T01:58:17.133Z,4.43
2022-11-17T02:01:22.012Z,3.88
2022-11-17T02:04:29.093Z,4.15
2022-11-17T02:07:35.246Z,3.28
2022-11-17T02:10:51.936Z,4.35
2022-11-17T02:14:01.289Z,4.80
2022-11-17T02:17:13.731Z,4.93
2022-11-17T02:20:21.561Z,5.90
2022-11-17T02:23:41.966Z,4.72
2022-11-17T02:27:01.587Z,3.58
2022-11-17T02:30:13.692Z,4.60
2022-11-17T02:33:23.021Z,3.17
2022-11-17T02:36:37.330Z,4.43
2022-11-17T02:39:45.802Z,3.88
2022-11-17T02:43:04.697Z,5.30
2022-11-17T02:46:14.487Z,3.13
2022-11-17T02:49:22.844Z,3.88
2022-11-17T02:52:28.683Z,3.90
2022-11-17T02:55:36.984Z,3.53
2022-11-17T02:58:41.785Z,3.65
2022-11-17T03:02:07.111Z,3.13
2022-11-17T03:05:18.450Z,3.92
2022-11-17T03:08:32.615Z,3.72
2022-11-17T03:11:42.753Z,3.40
2022-11-17T03:14:53.915Z,4.63
2022-11-17T03:18:07.094Z,3.90
2022-11-17T03:21:16.978Z,3.95
2022-11-17T03:24:23.950Z,4.38
2022-11-17T03:27:30.251Z,2.97
2022-11-17T03:30:37.623Z,4.18
2022-11-17T03:33:46.398Z,3.30
2022-11-17T03:36:54.823Z,4.03
2022-11-17T03:40:01.544Z,2.65
2022-11-17T03:43:08.283Z,3.83
2022-11-17T03:46:16.094Z,2.97
2022-11-17T03:49:28.977Z,3.78
2022-11-17T03:52:35.007Z,3.10
2022-11-17T03:55:47.070Z,3.72
2022-11-17T03:58:56.032Z,2.63
2022-11-17T04:02:03.128Z,2.92
2022-11-17T04:05:11.856Z,2.83
2022-11-17T04:08:17.038Z,3.20
2022-11-17T04:11:34.673Z,2.67
2022-11-17T04:14:51.913Z,4.82
2022-11-17T04:17:57.357Z,3.30
2022-11-17T04:21:08.309Z,2.95
2022-11-17T04:24:13.609Z,3.55
2022-11-17T04:27:32.399Z,3.40
2022-11-17T04:30:37.619Z,1.98
2022-11-17T04:33:43.487Z,2.72
2022-11-17T04:36:51.929Z,4.45
2022-11-17T04:39:56.809Z,3.40
2022-11-17T04:42:59.355Z,3.78
2022-11-17T04:46:04.470Z,4.53
2022-11-17T04:49:10.149Z,3.05
2022-11-17T04:52:17.847Z,3.70
2022-11-17T04:55:23.118Z,3.10
2022-11-17T04:58:28.053Z,3.55
2022-11-17T05:01:33.652Z,4.00
2022-11-17T05:04:59.553Z,2.92
2022-11-17T05:08:08.629Z,3.75
2022-11-17T05:11:26.308Z,3.67
2022-11-17T05:14:33.411Z,3.45
2022-11-17T05:17:37.023Z,2.92
2022-11-17T05:20:42.790Z,3.60
2022-11-17T05:24:01.304Z,3.35
2022-11-17T05:27:06.661Z,3.67
2022-11-17T05:30:12.386Z,4.35
2022-11-17T05:33:17.570Z,3.10
2022-11-17T05:36:23.965Z,3.35
2022-11-17T05:39:31.782Z,3.60
2022-11-17T05:42:36.693Z,3.92
2022-11-17T05:45:41.879Z,2.40
2022-11-17T05:48:46.767Z,3.55
2022-11-17T05:51:53.134Z,2.95
2022-11-17T05:55:00.794Z,4.60
2022-11-17T05:58:08.561Z,3.15
2022-11-17T06:01:14.788Z,4.93
2022-11-17T06:04:21.286Z,4.13
2022-11-17T06:10:49.701Z,6.03
2022-11-17T06:17:23.411Z,3.08
2022-11-17T06:20:30.376Z,3.92
2022-11-17T06:23:37.247Z,3.70
2022-11-17T06:26:51.714Z,4.10
2022-11-17T06:30:00.880Z,3.78
2022-11-17T06:33:08.931Z,3.80
2022-11-17T06:36:16.022Z,3.75
2022-11-17T06:39:21.710Z,5.00
2022-11-17T06:42:47.620Z,4.70
2022-11-17T06:45:56.028Z,4.75
2022-11-17T06:49:04.568Z,5.90
2022-11-17T06:52:14.775Z,5.18
2022-11-17T06:55:20.229Z,4.25
2022-11-17T06:58:28.759Z,5.47
2022-11-17T07:01:38.102Z,3.53
2022-11-17T07:04:46.028Z,3.45
2022-11-17T07:07:51.330Z,5.30
2022-11-17T07:11:04.630Z,5.60
2022-11-17T07:14:10.447Z,4.65
2022-11-17T07:17:19.220Z,4.93
2022-11-17T07:20:24.563Z,4.63
2022-11-17T07:23:32.771Z,4.43
2022-11-17T07:26:39.416Z,6.97
2022-11-17T07:29:45.256Z,5.75
2022-11-17T07:33:03.369Z,5.85
2022-11-17T07:36:09.907Z,6.45
2022-11-17T07:39:21.061Z,5.68
2022-11-17T07:42:27.324Z,6.27
2022-11-17T07:45:33.020Z,5.00
2022-11-17T07:48:41.927Z,5.53
2022-11-17T07:51:50.508Z,5.03
2022-11-17T07:54:56.754Z,4.38
2022-11-17T07:58:02.351Z,5.80
2022-11-17T08:01:08.224Z,4.88
2022-11-17T08:04:16.391Z,4.43
2022-11-17T08:07:22.926Z,6.72
2022-11-17T08:10:31.422Z,4.10
2022-11-17T08:13:43.445Z,4.53
2022-11-17T08:16:51.727Z,4.72
2022-11-17T08:20:01.165Z,4.05
2022-11-17T08:23:08.008Z,5.25
2022-11-17T08:26:16.768Z,4.65
2022-11-17T08:29:23.176Z,4.68
2022-11-17T08:32:30.347Z,4.95
2022-11-17T08:35:44.490Z,4.13
2022-11-17T08:38:57.111Z,4.25
2022-11-17T08:42:02.406Z,3.47
2022-11-17T08:45:08.791Z,6.15
2022-11-17T08:48:16.772Z,3.70
2022-11-17T08:51:26.635Z,4.82
2022-11-17T08:54:35.095Z,4.00
2022-11-17T08:57:42.823Z,4.85
2022-11-17T09:00:48.773Z,4.38
2022-11-17T09:03:56.622Z,3.70
2022-11-17T09:07:05.502Z,5.03
2022-11-17T09:10:12.107Z,5.20
2022-11-17T09:13:18.961Z,4.40
2022-11-17T09:16:25.534Z,4.13
2022-11-17T09:19:34.518Z,3.67
2022-11-17T09:33:02.857Z,7.82
2022-11-17T09:36:09.493Z,5.28
2022-11-17T09:39:22.520Z,4.30
2022-11-17T09:42:28.546Z,4.65
2022-11-17T09:45:42.363Z,4.90
2022-11-17T09:48:54.008Z,6.15
2022-11-17T09:52:03.814Z,4.00
2022-11-17T09:55:20.621Z,5.15
2022-11-17T09:58:39.665Z,6.22
2022-11-17T10:01:45.832Z,4.70
2022-11-17T10:04:57.258Z,3.97
2022-11-17T10:08:05.174Z,3.23
2022-11-17T10:11:28.356Z,3.95
2022-11-17T10:14:42.999Z,3.97
2022-11-17T10:17:57.304Z,3.58
2022-11-17T10:21:12.966Z,3.50
2022-11-17T10:24:37.797Z,4.55
2022-11-17T10:31:04.725Z,3.45
2022-11-17T10:34:15.798Z,3.80
2022-11-17T10:37:27.597Z,3.75
2022-11-17T10:40:54.343Z,3.65
2022-11-17T10:44:04.284Z,4.28
2022-11-17T10:47:10.165Z,3.58
2022-11-17T10:50:22.093Z,4.20
2022-11-17T10:53:31.984Z,4.72
2022-11-17T10:56:50.912Z,7.60
2022-11-17T11:00:08.174Z,5.30
2022-11-17T11:03:20.814Z,4.82
2022-11-17T11:06:46.538Z,6.05
2022-11-17T11:13:22.596Z,5.10
2022-11-17T11:16:55.974Z,6.30
2022-11-17T11:20:04.538Z,3.47
2022-11-17T11:23:20.736Z,4.70
2022-11-17T11:30:15.026Z,4.90
2022-11-17T11:33:33.553Z,5.00
2022-11-17T11:39:59.359Z,3.43
2022-11-17T11:46:27.808Z,4.40
2022-11-17T11:49:45.454Z,5.13
2022-11-17T11:56:18.354Z,5.33
2022-11-17T11:59:39.643Z,7.53
2022-11-17T12:02:53.607Z,5.40
2022-11-17T12:06:24.946Z,6.78
2022-11-17T12:09:58.506Z,5.07
2022-11-17T12:13:12.403Z,5.22
2022-11-17T12:16:30.859Z,4.88
2022-11-17T12:23:06.775Z,5.00
2022-11-17T12:26:23.707Z,5.35
2022-11-17T12:32:57.379Z,4.15
2022-11-17T12:39:35.031Z,9.02
2022-11-17T12:46:10.394Z,4.30
2022-11-17T12:49:22.334Z,3.72
2022-11-17T12:52:34.055Z,3.50
2022-11-17T12:55:45.686Z,3.65
2022-11-17T12:59:02.480Z,6.23
2022-11-17T13:05:26.959Z,4.50
2022-11-17T13:08:37.378Z,6.07
2022-11-17T13:11:52.298Z,6.00
2022-11-17T13:15:09.095Z,11.90
2022-11-17T13:18:18.463Z,4.45
2022-11-17T13:24:53.994Z,4.55
2022-11-17T13:28:04.772Z,4.60
2022-11-17T13:31:19.293Z,4.57
2022-11-17T13:34:27.947Z,4.32
2022-11-17T13:37:33.674Z,3.83
2022-11-17T13:40:45.784Z,4.80
2022-11-17T13:43:58.047Z,4.75
2022-11-17T13:47:20.677Z,5.15
2022-11-17T13:50:40.553Z,4.88
2022-11-17T13:53:51.811Z,4.35
2022-11-17T13:57:09.455Z,5.53
2022-11-17T14:00:22.300Z,4.18
2022-11-17T14:03:39.231Z,3.58
2022-11-17T14:06:58.568Z,4.50
2022-11-17T14:10:14.494Z,5.10
2022-11-17T14:13:25.350Z,4.85
2022-11-17T14:16:39.453Z,4.82
2022-11-17T14:19:47.246Z,4.63
2022-11-17T14:26:08.475Z,4.55
2022-11-17T14:29:14.540Z,5.72
2022-11-17T14:32:24.829Z,5.18
2022-11-17T14:38:50.766Z,6.13
2022-11-17T14:41:58.169Z,6.15
2022-11-17T14:45:06.070Z,5.90
2022-11-17T14:48:19.366Z,5.28
2022-11-17T14:51:26.000Z,5.28
2022-11-17T14:54:31.978Z,6.82
2022-11-17T14:57:38.522Z,6.68
2022-11-17T15:00:46.855Z,8.05
2022-11-17T15:07:10.996Z,5.82
2022-11-17T15:10:16.368Z,6.28
2022-11-17T15:13:26.196Z,14.75
2022-11-17T15:19:50.933Z,11.57
2022-11-17T15:23:03.203Z,6.35
2022-11-17T15:26:09.742Z,11.75
2022-11-17T15:29:17.221Z,10.45
2022-11-17T15:32:26.462Z,6.65
2022-11-17T15:35:31.894Z,14.52
2022-11-17T15:38:43.354Z,9.60
2022-11-17T15:45:26.485Z,9.33
2022-11-17T15:48:33.024Z,8.05
2022-11-17T15:51:41.907Z,8.02
2022-11-17T15:54:52.873Z,9.45
2022-11-17T15:57:58.551Z,6.63
2022-11-17T16:01:13.929Z,8.38
2022-11-17T16:04:21.861Z,7.75
2022-11-17T16:07:27.409Z,11.38
2022-11-17T16:10:35.275Z,7.15
2022-11-17T16:13:43.245Z,8.02
2022-11-17T16:16:49.850Z,15.50
2022-11-17T16:19:55.798Z,13.05
2022-11-17T16:23:00.714Z,9.82
2022-11-17T16:26:11.924Z,8.90
2022-11-17T16:29:17.919Z,10.85
2022-11-17T16:32:24.777Z,12.30
2022-11-17T16:35:32.739Z,12.05
2022-11-17T16:38:49.892Z,11.18
2022-11-17T16:42:07.544Z,11.05
2022-11-17T16:45:13.101Z,11.40
2022-11-17T16:48:19.783Z,11.23
2022-11-17T16:51:26.698Z,9.98
2022-11-17T16:54:31.855Z,9.95
2022-11-17T16:57:42.915Z,9.27
2022-11-17T17:00:48.650Z,7.88
2022-11-17T17:03:58.664Z,8.68
2022-11-17T17:07:03.999Z,9.55
2022-11-17T17:10:14.551Z,10.43
2022-11-17T17:13:24.132Z,10.07
2022-11-17T17:16:29.638Z,11.23
2022-11-17T17:19:36.531Z,9.38
2022-11-17T17:22:43.649Z,10.77
2022-11-17T17:25:49.792Z,12.50
2022-11-17T17:28:58.486Z,10.77
2022-11-17T17:32:04.187Z,11.90
2022-11-17T17:35:10.987Z,11.82
2022-11-17T17:38:16.293Z,9.32
2022-11-17T17:41:22.795Z,10.27
2022-11-17T17:44:30.776Z,12.00
2022-11-17T17:47:38.582Z,9.57
2022-11-17T17:50:45.714Z,9.70
2022-11-17T17:53:53.290Z,9.45
2022-11-17T17:56:58.765Z,11.00
2022-11-17T18:00:08.719Z,9.70
2022-11-17T18:03:15.464Z,10.60
2022-11-17T18:06:22.902Z,12.07
2022-11-17T18:09:29.556Z,12.30
2022-11-17T18:12:36.926Z,16.88
2022-11-17T18:15:45.059Z,32.97
2022-11-17T18:18:50.803Z,40.92
2022-11-17T18:21:55.978Z,39.97
2022-11-17T18:25:04.870Z,22.92
2022-11-17T18:28:13.654Z,36.13
2022-11-17T18:32:03.325Z,20.50
2022-11-17T18:35:08.956Z,14.60
2022-11-17T18:38:15.767Z,19.15
2022-11-17T18:41:22.696Z,19.40
2022-11-17T18:44:28.417Z,21.58
2022-11-17T18:47:38.981Z,19.52
2022-11-17T18:51:17.324Z,15.88
2022-11-17T18:54:15.182Z,14.07
2022-11-17T18:57:22.643Z,17.30
2022-11-17T19:00:28.926Z,25.13
2022-11-17T19:03:38.575Z,19.27
2022-11-17T19:06:46.411Z,12.85
2022-11-17T19:09:54.754Z,14.18
2022-11-17T19:13:02.024Z,15.15
2022-11-17T19:16:09.874Z,16.08
2022-11-17T19:19:18.000Z,14.60
2022-11-17T19:22:24.171Z,18.88
2022-11-17T19:25:29.265Z,18.48
2022-11-17T19:28:35.170Z,15.90
2022-11-17T19:31:40.739Z,19.45
2022-11-17T19:34:48.906Z,17.20
2022-11-17T19:37:54.503Z,18.20
2022-11-17T19:41:04.646Z,20.98
2022-11-17T19:44:11.434Z,21.92
2022-11-17T19:47:16.838Z,22.35
2022-11-17T19:50:24.804Z,25.55
2022-11-17T19:53:30.484Z,21.00
2022-11-17T19:56:35.701Z,21.40
2022-11-17T19:59:42.724Z,21.70
2022-11-17T20:02:47.677Z,15.30
2022-11-17T20:05:56.587Z,17.73
2022-11-17T20:09:02.352Z,15.27
2022-11-17T20:12:10.355Z,15.90
2022-11-17T20:15:33.092Z,15.48
2022-11-17T20:18:47.206Z,28.77
2022-11-17T20:22:00.245Z,49.55
2022-11-17T20:25:07.434Z,51.72
2022-11-17T20:28:13.969Z,28.17
2022-11-17T20:31:22.779Z,30.48
2022-11-17T20:34:37.083Z,28.98
2022-11-17T20:37:50.728Z,28.00
2022-11-17T20:41:03.640Z,17.27
2022-11-17T20:44:27.750Z,17.02
2022-11-17T20:47:42.969Z,19.73
2022-11-17T20:51:04.257Z,27.55
2022-11-17T20:54:16.860Z,23.45
2022-11-17T20:57:38.697Z,20.70
2022-11-17T21:00:48.100Z,48.15
2022-11-17T21:03:54.023Z,33.58
2022-11-17T21:07:00.276Z,21.27
2022-11-17T21:10:08.936Z,19.73
2022-11-17T21:13:22.000Z,16.98
2022-11-17T21:16:28.455Z,17.10
2022-11-17T21:19:44.862Z,17.30
2022-11-17T21:23:04.681Z,20.77
2022-11-17T21:26:38.979Z,21.73
2022-11-17T21:29:59.783Z,17.38
2022-11-17T21:33:17.731Z,16.20
2022-11-17T21:36:29.778Z,15.57
2022-11-17T21:39:42.038Z,16.35
2022-11-17T21:42:57.118Z,17.27
2022-11-17T21:46:05.650Z,15.02
2022-11-17T21:49:17.753Z,17.20
2022-11-17T21:52:29.261Z,18.98
2022-11-17T21:55:37.102Z,14.77
2022-11-17T21:58:46.617Z,17.08
2022-11-17T22:01:53.902Z,15.38
2022-11-17T22:04:58.802Z,16.95
2022-11-17T22:08:04.142Z,16.70
2022-11-17T22:11:35.919Z,20.57
2022-11-17T22:33:49.321Z,15.60
2022-11-17T22:36:56.050Z,17.27
2022-11-17T22:40:00.896Z,15.73
2022-11-17T22:43:13.310Z,17.17
2022-11-17T22:46:20.218Z,13.95
2022-11-17T22:49:46.885Z,14.82
2022-11-17T22:52:59.765Z,17.42
2022-11-17T22:56:06.798Z,13.82
2022-11-17T22:59:12.926Z,14.30
2022-11-17T23:02:19.997Z,15.38
2022-11-17T23:05:28.531Z,15.32
2022-11-17T23:08:42.857Z,15.95
2022-11-17T23:11:49.730Z,15.73
2022-11-17T23:14:57.867Z,18.10
2022-11-17T23:18:03.539Z,15.88
2022-11-17T23:21:12.892Z,15.02
2022-11-17T23:24:18.951Z,14.70
2022-11-17T23:27:25.585Z,15.40
2022-11-17T23:30:30.938Z,15.50
2022-11-17T23:33:42.903Z,15.00
2022-11-17T23:36:52.980Z,14.63
2022-11-17T23:40:02.972Z,13.65
2022-11-17T23:43:11.144Z,12.85
2022-11-17T23:46:17.596Z,13.93
2022-11-17T23:49:25.781Z,13.05
2022-11-17T23:52:34.743Z,15.23
2022-11-17T23:55:39.790Z,13.75
2022-11-17T23:58:45.457Z,18.02
